Time;durP1;ratioP1;P1;durP2;ratioP2;P2;SDS_P1;SDS_P2;PMS_P1;PMS_P2;Temp;Humidity;BMP_temperature;BMP_pressure;BME280_temperature;BME280_humidity;BME280_pressure;Samples;Min_cycle;Max_cycle;Signal;HPM_P1;HPM_P2
2023/11/17 00:00:01;;;;;;;10.53;7.63;;;;;21.00;100353.00;;;;2064849;28;20238;-68
2023/11/17 00:01:01;;;;;;;11.60;8.57;;;;;21.00;100354.00;;;;2064682;28;20223;-68
2023/11/17 00:02:02;;;;;;;10.07;8.50;;;;;21.00;100360.00;;;;2063212;28;20242;-68
2023/11/17 00:03:02;;;;;;;13.17;8.50;;;;;21.00;100355.00;;;;2063970;28;20317;-68
2023/11/17 00:04:03;;;;;;;11.80;8.37;;;;;21.00;100354.00;;;;2057595;28;20300;-68
2023/11/17 00:05:03;;;;;;;10.80;7.73;;;;;20.90;100358.00;;;;2064021;28;20620;-68
2023/11/17 00:06:04;;;;;;;12.77;8.33;;;;;21.00;100358.00;;;;2064300;28;20229;-68
2023/11/17 00:07:05;;;;;;;9.13;7.53;;;;;21.00;100373.00;;;;2056021;28;20269;-68
2023/11/17 00:08:05;;;;;;;9.23;7.20;;;;;20.90;100372.00;;;;2063194;28;20497;-68
2023/11/17 00:09:10;;;;;;;11.27;8.40;;;;;20.90;100371.00;;;;2060694;28;20226;-69
2023/11/17 00:10:10;;;;;;;10.23;7.97;;;;;21.00;100371.00;;;;2064791;28;20218;-68
2023/11/17 00:11:11;;;;;;;12.03;7.70;;;;;20.90;100374.00;;;;2066774;28;20214;-68
2023/11/17 00:12:12;;;;;;;11.23;7.70;;;;;21.00;100382.00;;;;2063881;28;20489;-68
2023/11/17 00:13:13;;;;;;;9.15;6.60;;;;;21.00;100376.00;;;;2053786;28;20469;-68
2023/11/17 00:14:13;;;;;;;8.80;7.07;;;;;21.00;100382.00;;;;2071918;28;20603;-68
2023/11/17 00:15:13;;;;;;;8.80;6.13;;;;;21.00;100384.00;;;;2071026;28;20717;-68
2023/11/17 00:16:14;;;;;;;8.97;6.90;;;;;21.00;100388.00;;;;2067804;28;20214;-69
2023/11/17 00:17:14;;;;;;;7.90;6.43;;;;;21.00;100389.00;;;;2064551;28;20231;-68
2023/11/17 00:18:15;;;;;;;7.87;6.40;;;;;20.90;100390.00;;;;2055115;28;20223;-68
2023/11/17 00:19:15;;;;;;;9.47;6.53;;;;;20.90;100396.00;;;;2071887;28;20210;-68
2023/11/17 00:20:15;;;;;;;9.77;6.53;;;;;20.90;100402.00;;;;2069115;28;20277;-68
2023/11/17 00:21:17;;;;;;;8.20;6.47;;;;;20.90;100397.00;;;;2071241;28;20206;-68
2023/11/17 00:22:17;;;;;;;8.75;6.10;;;;;20.90;100405.00;;;;2063468;28;20207;-68
2023/11/17 00:23:19;;;;;;;7.77;6.00;;;;;20.90;100404.00;;;;2055538;28;20218;-68
2023/11/17 00:24:19;;;;;;;7.78;5.70;;;;;20.90;100404.00;;;;2071770;28;20210;-68
2023/11/17 00:25:19;;;;;;;7.73;6.67;;;;;20.90;100399.00;;;;2069295;28;20210;-68
2023/11/17 00:26:20;;;;;;;7.80;5.87;;;;;20.80;100404.00;;;;2064277;28;20213;-68
2023/11/17 00:27:20;;;;;;;7.90;6.10;;;;;20.80;100401.00;;;;2064339;28;20218;-68
2023/11/17 00:28:24;;;;;;;6.70;5.60;;;;;20.80;100405.00;;;;2059254;28;20238;-68
2023/11/17 00:29:24;;;;;;;6.78;5.85;;;;;20.90;100405.00;;;;2064264;28;20215;-68
2023/11/17 00:30:24;;;;;;;8.27;5.77;;;;;20.90;100404.00;;;;2064045;28;20230;-68
2023/11/17 00:31:25;;;;;;;6.90;5.53;;;;;20.90;100396.00;;;;2064266;28;20214;-68
2023/11/17 00:32:26;;;;;;;7.60;5.60;;;;;20.80;100412.00;;;;2062023;28;20210;-68
2023/11/17 00:33:26;;;;;;;8.55;5.65;;;;;20.80;100408.00;;;;2051750;28;20220;-68
2023/11/17 00:34:27;;;;;;;6.57;5.20;;;;;20.80;100412.00;;;;2064485;28;21049;-68
2023/11/17 00:35:27;;;;;;;7.57;5.30;;;;;20.80;100408.00;;;;2062861;28;20213;-68
2023/11/17 00:36:27;;;;;;;7.20;5.53;;;;;20.80;100406.00;;;;2064465;28;20219;-68
2023/11/17 00:37:27;;;;;;;6.23;4.90;;;;;20.80;100418.00;;;;2064127;28;20242;-68
2023/11/17 00:38:31;;;;;;;6.50;5.37;;;;;20.80;100411.00;;;;2054817;28;20233;-68
2023/11/17 00:39:31;;;;;;;7.90;5.30;;;;;20.80;100420.00;;;;2065042;28;20207;-68
2023/11/17 00:40:35;;;;;;;5.77;4.93;;;;;20.80;100413.00;;;;2069058;28;20235;-68
2023/11/17 00:41:35;;;;;;;5.97;5.25;;;;;20.80;100419.00;;;;2064321;28;20321;-68
2023/11/17 00:42:36;;;;;;;5.70;4.77;;;;;20.80;100418.00;;;;2066273;28;20236;-68
2023/11/17 00:43:36;;;;;;;5.63;4.70;;;;;20.80;100415.00;;;;2058497;28;20736;-68
2023/11/17 00:44:37;;;;;;;7.53;5.40;;;;;20.80;100419.00;;;;2071655;28;20260;-68
2023/11/17 00:45:37;;;;;;;6.30;4.70;;;;;20.80;100434.00;;;;2067448;28;20223;-68
2023/11/17 00:46:37;;;;;;;6.97;5.13;;;;;20.80;100417.00;;;;2063883;28;21134;-68
2023/11/17 00:47:38;;;;;;;5.70;4.40;;;;;20.80;100430.00;;;;2064139;28;20223;-68
2023/11/17 00:48:38;;;;;;;7.80;4.70;;;;;20.80;100427.00;;;;2054696;28;20238;-68
2023/11/17 00:49:40;;;;;;;8.60;4.83;;;;;20.80;100424.00;;;;2063784;28;20234;-68
2023/11/17 00:50:41;;;;;;;5.97;4.25;;;;;20.70;100427.00;;;;2064237;28;20219;-68
2023/11/17 00:51:41;;;;;;;5.68;4.30;;;;;20.80;100435.00;;;;2063921;28;20234;-68
2023/11/17 00:52:42;;;;;;;5.60;4.27;;;;;20.70;100433.00;;;;2064270;28;20226;-68
2023/11/17 00:53:42;;;;;;;5.93;5.07;;;;;20.80;100432.00;;;;2054351;28;20211;-68
2023/11/17 00:54:42;;;;;;;5.03;4.03;;;;;20.80;100433.00;;;;2067731;28;20273;-68
2023/11/17 00:55:43;;;;;;;5.53;4.67;;;;;20.80;100431.00;;;;2064063;28;20215;-68
2023/11/17 00:56:43;;;;;;;6.23;4.40;;;;;20.80;100431.00;;;;2063255;28;20219;-68
2023/11/17 00:57:47;;;;;;;5.83;3.93;;;;;20.70;100433.00;;;;2063990;28;20211;-68
2023/11/17 00:58:47;;;;;;;6.85;4.15;;;;;20.70;100438.00;;;;2054065;28;20211;-68
2023/11/17 00:59:47;;;;;;;7.20;4.20;;;;;20.70;100441.00;;;;2064155;28;20223;-68
2023/11/17 01:00:48;;;;;;;6.03;4.13;;;;;20.70;100430.00;;;;2064283;28;20215;-68
2023/11/17 01:01:48;;;;;;;4.87;4.37;;;;;20.70;100442.00;;;;2064345;28;20868;-68
2023/11/17 01:02:48;;;;;;;5.57;4.33;;;;;20.70;100437.00;;;;2064351;28;20260;-68
2023/11/17 01:03:49;;;;;;;4.70;3.90;;;;;20.70;100438.00;;;;2054150;28;20269;-68
2023/11/17 01:04:49;;;;;;;8.97;4.10;;;;;20.70;100438.00;;;;2062618;28;20211;-68
2023/11/17 01:05:51;;;;;;;5.83;4.50;;;;;20.70;100440.00;;;;2065192;28;20203;-68
2023/11/17 01:06:53;;;;;;;6.72;4.47;;;;;20.70;100448.00;;;;2066730;28;20302;-68
2023/11/17 01:07:56;;;;;;;5.00;4.20;;;;;20.70;100432.00;;;;2063902;28;20214;-68
2023/11/17 01:08:57;;;;;;;4.85;4.15;;;;;20.70;100454.00;;;;2053167;28;20230;-68
2023/11/17 01:09:57;;;;;;;5.03;3.80;;;;;20.70;100461.00;;;;2063991;28;20218;-68
2023/11/17 01:10:59;;;;;;;3.70;3.33;;;;;20.70;100463.00;;;;2063384;28;20318;-68
2023/11/17 01:11:59;;;;;;;4.90;3.90;;;;;20.70;100468.00;;;;2064086;28;20215;-68
2023/11/17 01:13:00;;;;;;;5.33;3.67;;;;;20.70;100469.00;;;;2063897;28;20234;-68
2023/11/17 01:14:00;;;;;;;4.13;3.67;;;;;20.70;100464.00;;;;2053574;28;20214;-68
2023/11/17 01:15:03;;;;;;;6.50;4.17;;;;;20.70;100462.00;;;;2064451;28;20230;-68
2023/11/17 01:16:05;;;;;;;6.05;3.85;;;;;20.70;100460.00;;;;2064202;28;20210;-68
2023/11/17 01:17:05;;;;;;;4.75;4.00;;;;;20.70;100466.00;;;;2064097;28;20215;-68
2023/11/17 01:18:06;;;;;;;6.60;3.70;;;;;20.60;100464.00;;;;2066497;28;20881;-68
2023/11/17 01:19:07;;;;;;;4.68;3.90;;;;;20.60;100471.00;;;;2062048;28;20226;-68
2023/11/17 01:20:09;;;;;;;5.70;3.70;;;;;20.60;100468.00;;;;2066350;28;20253;-68
2023/11/17 01:21:10;;;;;;;6.40;3.70;;;;;20.60;100467.00;;;;2063710;28;20315;-68
2023/11/17 01:22:11;;;;;;;4.80;3.83;;;;;20.60;100472.00;;;;2055352;28;20223;-68
2023/11/17 01:23:13;;;;;;;5.28;4.10;;;;;20.60;100468.00;;;;2053426;28;20224;-68
2023/11/17 01:24:13;;;;;;;4.38;3.35;;;;;20.60;100467.00;;;;2063202;28;20223;-68
2023/11/17 01:25:13;;;;;;;4.77;3.70;;;;;20.60;100478.00;;;;2068253;28;20245;-68
2023/11/17 01:26:14;;;;;;;4.90;4.07;;;;;20.70;100469.00;;;;2063518;28;20211;-68
2023/11/17 01:27:15;;;;;;;3.87;3.47;;;;;20.60;100476.00;;;;2065560;28;20211;-68
2023/11/17 01:28:17;;;;;;;4.53;3.70;;;;;20.60;100476.00;;;;2054621;28;20219;-68
2023/11/17 01:29:17;;;;;;;3.72;3.30;;;;;20.60;100477.00;;;;2063439;28;20215;-68
2023/11/17 01:30:18;;;;;;;5.30;3.60;;;;;20.60;100471.00;;;;2069928;28;20206;-68
2023/11/17 01:31:21;;;;;;;4.57;3.50;;;;;20.60;100472.00;;;;2064079;28;20294;-68
2023/11/17 01:32:22;;;;;;;4.53;3.40;;;;;20.60;100478.00;;;;2065113;28;20713;-68
2023/11/17 01:33:22;;;;;;;3.67;3.38;;;;;20.60;100479.00;;;;2053775;28;20230;-68
2023/11/17 01:34:23;;;;;;;4.07;3.50;;;;;20.60;100486.00;;;;2063937;28;20233;-68
2023/11/17 01:35:23;;;;;;;4.83;3.60;;;;;20.60;100491.00;;;;2063799;28;20582;-68
2023/11/17 01:36:24;;;;;;;5.47;3.57;;;;;20.60;100476.00;;;;2058089;28;20215;-68
2023/11/17 01:37:25;;;;;;;5.13;3.43;;;;;20.60;100488.00;;;;2062636;28;20211;-68
2023/11/17 01:38:26;;;;;;;5.97;3.85;;;;;20.60;100477.00;;;;2053639;28;21252;-68
2023/11/17 01:39:26;;;;;;;5.10;3.13;;;;;20.60;100469.00;;;;2063226;28;20218;-68
2023/11/17 01:40:27;;;;;;;4.27;3.07;;;;;20.50;100485.00;;;;2063776;28;20454;-68
2023/11/17 01:41:27;;;;;;;3.90;3.23;;;;;20.60;100486.00;;;;2063469;28;20451;-68
2023/11/17 01:42:32;;;;;;;3.47;3.17;;;;;20.60;100489.00;;;;2063520;28;20218;-68
2023/11/17 01:43:33;;;;;;;4.88;3.38;;;;;20.50;100487.00;;;;2052328;28;20256;-68
2023/11/17 01:44:33;;;;;;;5.30;3.40;;;;;20.50;100493.00;;;;2062665;28;20757;-68
2023/11/17 01:45:33;;;;;;;4.60;3.47;;;;;20.50;100494.00;;;;2062079;28;20207;-68
2023/11/17 01:46:34;;;;;;;5.67;3.20;;;;;20.50;100493.00;;;;2062424;28;20261;-68
2023/11/17 01:47:38;;;;;;;5.00;3.10;;;;;20.50;100498.00;;;;2063362;28;20262;-68
2023/11/17 01:48:39;;;;;;;3.58;3.25;;;;;20.50;100492.00;;;;2045902;28;20228;-68
2023/11/17 01:49:41;;;;;;;4.60;3.17;;;;;20.50;100497.00;;;;2059481;28;20349;-68
2023/11/17 01:50:42;;;;;;;4.90;3.47;;;;;20.50;100493.00;;;;2059056;28;20457;-68
2023/11/17 01:51:42;;;;;;;4.70;3.43;;;;;20.50;100495.00;;;;2062865;28;20242;-68
2023/11/17 01:52:43;;;;;;;5.57;3.60;;;;;20.50;100500.00;;;;2063228;28;20542;-68
2023/11/17 01:53:43;;;;;;;5.00;3.70;;;;;20.50;100500.00;;;;2056530;28;20218;-68
2023/11/17 01:54:47;;;;;;;4.43;3.20;;;;;20.50;100502.00;;;;2066728;28;20830;-68
2023/11/17 01:55:47;;;;;;;4.30;3.20;;;;;20.50;100503.00;;;;2063752;28;20211;-68
2023/11/17 01:56:48;;;;;;;7.00;3.60;;;;;20.50;100475.00;;;;2067044;28;20660;-68
2023/11/17 01:57:49;;;;;;;3.90;3.35;;;;;20.50;100509.00;;;;2055514;28;20294;-68
2023/11/17 01:58:50;;;;;;;3.00;2.67;;;;;20.50;100503.00;;;;2044742;28;20753;-68
2023/11/17 01:59:52;;;;;;;4.28;3.33;;;;;20.50;100505.00;;;;2055145;28;20211;-68
2023/11/17 02:00:53;;;;;;;4.25;3.60;;;;;20.50;100510.00;;;;2063501;28;20269;-68
2023/11/17 02:01:53;;;;;;;5.30;3.77;;;;;20.40;100504.00;;;;2071224;28;20348;-68
2023/11/17 02:02:53;;;;;;;3.70;3.07;;;;;20.50;100507.00;;;;2063689;28;20214;-68
2023/11/17 02:03:55;;;;;;;4.20;3.10;;;;;20.50;100479.00;;;;2040233;28;20212;-68
2023/11/17 02:04:56;;;;;;;3.92;3.10;;;;;20.50;100519.00;;;;2044318;28;20213;-68
2023/11/17 02:06:06;;;;;;;4.47;3.70;;;;;20.50;100515.00;;;;2056005;28;20212;-68
2023/11/17 02:07:09;;;;;;;4.85;3.35;;;;;20.50;100517.00;;;;2053719;28;20223;-68
2023/11/17 02:08:19;;;;;;;4.13;3.03;;;;;20.40;100515.00;;;;2050592;28;20230;-68
2023/11/17 02:09:30;;;;;;;4.65;3.35;;;;;20.40;100524.00;;;;2055979;28;20232;-68
2023/11/17 02:10:45;;;;;;;5.30;2.90;;;;;20.50;100520.00;;;;2062274;28;20245;-68
2023/11/17 02:11:54;;;;;;;4.65;3.28;;;;;20.50;100523.00;;;;2056896;28;20230;-68
2023/11/17 02:13:06;;;;;;;4.07;3.30;;;;;20.50;100485.00;;;;2054597;28;20219;-68
2023/11/17 02:14:10;;;;;;;5.38;3.50;;;;;20.40;100523.00;;;;2052449;28;20247;-68
2023/11/17 02:15:10;;;;;;;5.00;3.25;;;;;20.40;100524.00;;;;2054968;28;20232;-68
2023/11/17 02:16:11;;;;;;;3.70;3.03;;;;;20.50;100522.00;;;;2062984;28;20226;-68
2023/11/17 02:17:15;;;;;;;3.63;3.20;;;;;20.40;100527.00;;;;2054421;28;20298;-68
2023/11/17 02:18:15;;;;;;;4.15;2.70;;;;;20.40;100522.00;;;;2037854;28;20470;-68
2023/11/17 02:19:22;;;;;;;4.57;2.90;;;;;20.40;100529.00;;;;2048091;28;20227;-68
2023/11/17 02:20:25;;;;;;;3.92;3.25;;;;;20.40;100523.00;;;;2045537;28;20311;-68
2023/11/17 02:21:30;;;;;;;6.43;3.40;;;;;20.40;100527.00;;;;2063233;28;20199;-68
2023/11/17 02:22:31;;;;;;;3.97;3.03;;;;;20.40;100433.00;;;;2065400;28;20800;-68
2023/11/17 02:23:31;;;;;;;4.93;3.20;;;;;20.40;100527.00;;;;2045149;28;20247;-68
2023/11/17 02:24:42;;;;;;;4.07;3.53;;;;;20.40;100505.00;;;;2052961;28;20267;-68
2023/11/17 02:26:07;;;;;;;6.65;3.13;;;;;20.40;100540.00;;;;2047848;28;20239;-68
2023/11/17 02:27:19;;;;;;;4.05;3.10;;;;;20.40;100534.00;;;;2058935;28;20238;-68
2023/11/17 02:28:34;;;;;;;4.07;3.03;;;;;20.40;100541.00;;;;2044782;28;20286;-68
2023/11/17 02:29:37;;;;;;;7.18;3.45;;;;;20.40;100546.00;;;;2065248;28;20241;-68
2023/11/17 02:30:39;;;;;;;4.32;3.25;;;;;20.40;100551.00;;;;2062877;28;20211;-68
2023/11/17 02:31:40;;;;;;;4.70;3.28;;;;;20.40;100543.00;;;;2044793;28;20312;-68
2023/11/17 02:32:41;;;;;;;5.07;3.38;;;;;20.40;100545.00;;;;2047481;28;20239;-68
2023/11/17 02:33:44;;;;;;;5.37;3.53;;;;;20.40;100548.00;;;;2045248;28;20218;-68
2023/11/17 02:34:45;;;;;;;3.92;3.40;;;;;20.40;100545.00;;;;2062653;28;20249;-68
2023/11/17 02:35:45;;;;;;;4.67;3.37;;;;;20.40;100543.00;;;;2062721;28;20229;-68
2023/11/17 02:36:45;;;;;;;3.87;3.30;;;;;20.40;100546.00;;;;2063934;28;20222;-68
2023/11/17 02:37:50;;;;;;;4.53;2.90;;;;;20.40;100547.00;;;;2062899;28;20273;-68
2023/11/17 02:38:51;;;;;;;4.15;3.42;;;;;20.30;100534.00;;;;2048443;28;20221;-68
2023/11/17 02:39:56;;;;;;;4.27;3.40;;;;;20.30;100535.00;;;;2067229;28;20222;-68
2023/11/17 02:40:57;;;;;;;4.85;3.10;;;;;20.40;100540.00;;;;2062575;28;20470;-68
2023/11/17 02:41:57;;;;;;;4.60;3.90;;;;;20.30;100537.00;;;;2060877;28;20334;-68
2023/11/17 02:43:07;;;;;;;5.20;3.50;;;;;20.30;100539.00;;;;2063507;28;20215;-68
2023/11/17 02:44:12;;;;;;;4.45;3.60;;;;;20.30;100539.00;;;;2061639;28;20309;-68
2023/11/17 02:45:19;;;;;;;4.63;3.47;;;;;20.30;100533.00;;;;2062877;28;20219;-68
2023/11/17 02:46:24;;;;;;;6.28;3.63;;;;;20.20;100529.00;;;;2061623;28;20223;-68
2023/11/17 02:47:27;;;;;;;6.22;4.05;;;;;20.30;100539.00;;;;2055899;28;20222;-68
2023/11/17 02:48:29;;;;;;;6.63;3.90;;;;;20.30;100540.00;;;;2053210;28;20705;-68
2023/11/17 02:49:42;;;;;;;5.90;4.00;;;;;20.30;100534.00;;;;2063496;28;20626;-68
2023/11/17 02:51:03;;;;;;;6.07;4.15;;;;;20.30;100543.00;;;;2062974;28;20258;-68
2023/11/17 02:52:09;;;;;;;5.78;4.00;;;;;20.30;100544.00;;;;2063336;28;20214;-68
2023/11/17 02:53:24;;;;;;;6.47;4.75;;;;;20.30;100513.00;;;;2054023;28;20704;-68
2023/11/17 02:54:25;;;;;;;6.90;4.43;;;;;20.30;100546.00;;;;2046987;28;20715;-68
2023/11/17 02:55:27;;;;;;;6.25;4.20;;;;;20.30;100541.00;;;;2057063;28;20230;-68
2023/11/17 02:56:29;;;;;;;7.25;4.85;;;;;20.30;100545.00;;;;2054719;28;20306;-68
2023/11/17 02:57:29;;;;;;;5.28;4.25;;;;;20.20;100548.00;;;;2055274;28;20223;-68
2023/11/17 02:58:32;;;;;;;7.93;4.67;;;;;20.30;100553.00;;;;2049963;28;20261;-68
2023/11/17 02:59:35;;;;;;;7.43;4.85;;;;;20.20;100552.00;;;;2047379;28;20220;-68
2023/11/17 03:00:36;;;;;;;7.45;5.10;;;;;20.30;100551.00;;;;2063094;28;20250;-68
2023/11/17 03:01:38;;;;;;;6.70;4.40;;;;;20.30;100552.00;;;;2054955;28;20278;-68
2023/11/17 03:02:39;;;;;;;8.90;5.72;;;;;20.30;100551.00;;;;2054554;28;20259;-68
2023/11/17 03:03:39;;;;;;;6.70;5.00;;;;;20.20;100555.00;;;;2060050;28;20222;-68
2023/11/17 03:04:40;;;;;;;6.33;4.43;;;;;20.30;100551.00;;;;2070383;28;20452;-68
2023/11/17 03:05:40;;;;;;;7.13;4.60;;;;;20.30;100551.00;;;;2056715;28;20298;-68
2023/11/17 03:06:48;;;;;;;6.50;5.53;;;;;20.30;100555.00;;;;2062008;28;20207;-68
2023/11/17 03:07:49;;;;;;;7.20;4.97;;;;;20.30;100559.00;;;;2063485;28;20580;-68
2023/11/17 03:08:49;;;;;;;7.73;5.10;;;;;20.20;100551.00;;;;2052165;28;20238;-68
2023/11/17 03:09:51;;;;;;;7.83;5.53;;;;;20.30;100557.00;;;;2065223;28;20232;-68
2023/11/17 03:11:00;;;;;;;8.70;5.18;;;;;20.20;100554.00;;;;2067417;28;20225;-68
2023/11/17 03:12:01;;;;;;;7.97;5.15;;;;;20.30;100564.00;;;;2063826;28;20241;-68
2023/11/17 03:13:01;;;;;;;6.80;4.87;;;;;20.20;100561.00;;;;2063268;28;20538;-68
2023/11/17 03:14:05;;;;;;;6.77;4.67;;;;;20.30;100564.00;;;;2053980;28;20226;-68
2023/11/17 03:15:09;;;;;;;6.80;5.05;;;;;20.20;100552.00;;;;2062235;28;20229;-68
2023/11/17 03:16:10;;;;;;;8.35;5.10;;;;;20.20;100561.00;;;;2063576;28;20215;-68
2023/11/17 03:17:10;;;;;;;7.90;4.90;;;;;20.20;100559.00;;;;2063390;28;20536;-68
2023/11/17 03:18:11;;;;;;;8.43;5.10;;;;;20.30;100568.00;;;;2054149;28;20595;-68
2023/11/17 03:19:11;;;;;;;11.03;5.37;;;;;20.30;100564.00;;;;2064343;28;20636;-68
2023/11/17 03:20:14;;;;;;;6.67;4.93;;;;;20.20;100564.00;;;;2065114;28;20219;-68
2023/11/17 03:21:18;;;;;;;8.60;5.82;;;;;20.20;100564.00;;;;2065086;28;20214;-68
2023/11/17 03:22:18;;;;;;;10.32;5.15;;;;;20.20;100568.00;;;;2064025;28;20215;-68
2023/11/17 03:23:18;;;;;;;6.50;5.30;;;;;20.20;100567.00;;;;2055656;28;20211;-68
2023/11/17 03:24:20;;;;;;;6.43;5.13;;;;;20.20;100564.00;;;;2064570;28;20215;-68
2023/11/17 03:25:21;;;;;;;8.02;5.85;;;;;20.20;100560.00;;;;2064837;28;20214;-68
2023/11/17 03:26:22;;;;;;;7.38;5.43;;;;;20.20;100565.00;;;;2064447;28;20242;-68
2023/11/17 03:27:22;;;;;;;10.83;5.50;;;;;20.20;100568.00;;;;2065135;28;20237;-67
2023/11/17 03:28:23;;;;;;;7.37;5.23;;;;;20.20;100567.00;;;;2055563;28;20253;-67
2023/11/17 03:29:24;;;;;;;9.63;6.03;;;;;20.20;100571.00;;;;2063684;28;20223;-67
2023/11/17 03:30:25;;;;;;;7.45;5.25;;;;;20.20;100559.00;;;;2056780;28;20220;-68
2023/11/17 03:31:26;;;;;;;6.77;4.53;;;;;20.20;100547.00;;;;2065551;28;20218;-68
2023/11/17 03:32:28;;;;;;;7.18;5.15;;;;;20.20;100552.00;;;;2065034;28;20293;-68
2023/11/17 03:33:31;;;;;;;8.90;5.75;;;;;20.20;100556.00;;;;2053951;28;20229;-68
2023/11/17 03:34:31;;;;;;;6.93;5.57;;;;;20.20;100553.00;;;;2064812;28;20218;-68
2023/11/17 03:35:31;;;;;;;6.60;5.00;;;;;20.20;100559.00;;;;2064682;28;20557;-68
2023/11/17 03:36:32;;;;;;;8.07;5.57;;;;;20.20;100564.00;;;;2067402;28;20221;-68
2023/11/17 03:37:32;;;;;;;7.50;5.70;;;;;20.20;100561.00;;;;2065098;28;20210;-68
2023/11/17 03:38:33;;;;;;;6.70;5.40;;;;;20.20;100565.00;;;;2055343;28;20233;-67
2023/11/17 03:39:41;;;;;;;7.33;5.67;;;;;20.20;100565.00;;;;2058801;28;20210;-67
2023/11/17 03:40:45;;;;;;;8.57;5.50;;;;;20.20;100562.00;;;;2064444;28;20219;-67
2023/11/17 03:41:45;;;;;;;8.60;5.28;;;;;20.20;100561.00;;;;2068786;28;20218;-67
2023/11/17 03:42:45;;;;;;;6.80;5.50;;;;;20.20;100562.00;;;;2065023;28;20223;-67
2023/11/17 03:43:46;;;;;;;7.60;5.90;;;;;20.20;100561.00;;;;2053300;28;20251;-67
2023/11/17 03:44:46;;;;;;;7.93;5.43;;;;;20.20;100563.00;;;;2064578;28;20243;-67
2023/11/17 03:45:49;;;;;;;7.13;5.00;;;;;20.10;100564.00;;;;2063877;28;20233;-67
2023/11/17 03:46:54;;;;;;;16.70;6.00;;;;;20.20;100569.00;;;;2064965;28;20252;-67
2023/11/17 03:47:54;;;;;;;5.93;5.00;;;;;20.20;100571.00;;;;2064497;28;20222;-67
2023/11/17 03:48:56;;;;;;;10.23;6.30;;;;;20.20;100574.00;;;;2058349;28;20215;-68
2023/11/17 03:49:56;;;;;;;8.98;5.82;;;;;20.10;100577.00;;;;2064913;28;20382;-68
2023/11/17 03:50:56;;;;;;;7.87;5.40;;;;;20.10;100577.00;;;;2068005;28;20325;-68
2023/11/17 03:51:57;;;;;;;9.47;5.97;;;;;20.10;100579.00;;;;2066523;28;20242;-68
2023/11/17 03:52:59;;;;;;;6.67;5.00;;;;;20.10;100574.00;;;;2063559;28;20285;-68
2023/11/17 03:53:59;;;;;;;6.72;5.30;;;;;20.10;100572.00;;;;2058731;28;20221;-68
2023/11/17 03:55:00;;;;;;;7.70;5.60;;;;;20.10;100580.00;;;;2064812;28;20214;-68
2023/11/17 03:56:00;;;;;;;9.17;6.20;;;;;20.10;100577.00;;;;2064280;28;20219;-68
2023/11/17 03:57:03;;;;;;;10.63;5.30;;;;;20.20;100583.00;;;;2064802;28;20293;-68
2023/11/17 03:58:03;;;;;;;8.00;5.35;;;;;20.10;100582.00;;;;2064700;28;20214;-68
2023/11/17 03:59:04;;;;;;;7.77;6.00;;;;;20.20;100586.00;;;;2055326;28;20621;-68
2023/11/17 04:00:06;;;;;;;6.67;5.43;;;;;20.10;100569.00;;;;2064356;28;20222;-68
2023/11/17 04:01:06;;;;;;;7.80;5.55;;;;;20.10;100587.00;;;;2063712;28;20247;-68
2023/11/17 04:02:07;;;;;;;7.63;5.23;;;;;20.10;100583.00;;;;2064122;28;20219;-68
2023/11/17 04:03:08;;;;;;;7.80;5.82;;;;;20.10;100575.00;;;;2048360;28;20272;-68
2023/11/17 04:04:09;;;;;;;8.35;6.07;;;;;20.20;100587.00;;;;2056232;28;20231;-68
2023/11/17 04:05:13;;;;;;;8.70;6.13;;;;;20.10;100579.00;;;;2055244;28;20780;-68
2023/11/17 04:06:13;;;;;;;8.20;5.85;;;;;20.10;100592.00;;;;2063966;28;20226;-67
2023/11/17 04:07:13;;;;;;;9.73;6.37;;;;;20.10;100596.00;;;;2064697;28;20226;-67
2023/11/17 04:08:16;;;;;;;8.90;6.17;;;;;20.10;100601.00;;;;2053204;28;20243;-67
2023/11/17 04:09:20;;;;;;;8.23;5.85;;;;;20.10;100595.00;;;;2062307;28;20294;-67
2023/11/17 04:10:23;;;;;;;7.68;5.10;;;;;20.10;100598.00;;;;2064026;28;20211;-67
2023/11/17 04:11:24;;;;;;;9.52;6.30;;;;;20.10;100594.00;;;;2071979;28;20214;-67
2023/11/17 04:12:24;;;;;;;10.10;7.80;;;;;20.10;100597.00;;;;2072503;28;20218;-67
2023/11/17 04:13:25;;;;;;;9.00;6.83;;;;;20.10;100595.00;;;;2051120;28;20517;-67
2023/11/17 04:14:26;;;;;;;8.68;5.78;;;;;20.10;100592.00;;;;2064593;28;20223;-67
2023/11/17 04:15:27;;;;;;;11.50;8.00;;;;;20.10;100582.00;;;;2068007;28;20233;-67
2023/11/17 04:16:27;;;;;;;9.93;7.20;;;;;20.10;100590.00;;;;2071600;28;20878;-67
2023/11/17 04:17:30;;;;;;;10.30;6.67;;;;;20.10;100590.00;;;;2059094;28;20258;-68
2023/11/17 04:18:30;;;;;;;15.20;7.75;;;;;20.10;100603.00;;;;2045443;28;20619;-68
2023/11/17 04:19:30;;;;;;;13.83;7.90;;;;;20.10;100603.00;;;;2067557;28;20254;-68
2023/11/17 04:20:31;;;;;;;12.27;7.30;;;;;20.10;100599.00;;;;2064560;28;21110;-68
2023/11/17 04:21:33;;;;;;;13.33;8.07;;;;;20.00;100600.00;;;;2063815;28;20234;-68
2023/11/17 04:22:33;;;;;;;12.10;7.35;;;;;20.10;100600.00;;;;2063464;28;20223;-68
2023/11/17 04:23:34;;;;;;;14.77;8.97;;;;;20.10;100594.00;;;;2054017;28;20686;-68
2023/11/17 04:24:34;;;;;;;14.80;8.67;;;;;20.10;100596.00;;;;2063325;28;20770;-68
2023/11/17 04:25:34;;;;;;;14.30;8.10;;;;;20.10;100591.00;;;;2055526;28;20220;-68
2023/11/17 04:26:35;;;;;;;13.50;8.10;;;;;20.10;100599.00;;;;2067512;28;20779;-68
2023/11/17 04:27:38;;;;;;;11.40;8.20;;;;;20.10;100595.00;;;;2062536;28;20227;-68
2023/11/17 04:28:39;;;;;;;13.27;8.15;;;;;20.10;100596.00;;;;2053492;28;20709;-68
2023/11/17 04:29:39;;;;;;;15.17;9.20;;;;;20.10;100601.00;;;;2070563;28;20226;-68
2023/11/17 04:30:40;;;;;;;13.37;8.37;;;;;20.10;100598.00;;;;2063882;28;20264;-68
2023/11/17 04:31:41;;;;;;;14.30;8.35;;;;;20.10;100607.00;;;;2063098;28;20265;-68
2023/11/17 04:32:42;;;;;;;12.98;8.75;;;;;20.10;100608.00;;;;2063265;28;20568;-68
2023/11/17 04:33:42;;;;;;;18.13;8.90;;;;;20.10;100600.00;;;;2052199;28;20223;-68
2023/11/17 04:34:42;;;;;;;12.43;8.40;;;;;20.10;100599.00;;;;2064410;28;20223;-68
2023/11/17 04:35:43;;;;;;;16.93;8.73;;;;;20.10;100599.00;;;;2064950;28;20249;-68
2023/11/17 04:36:44;;;;;;;16.80;8.30;;;;;20.10;100597.00;;;;2070330;28;20221;-68
2023/11/17 04:37:44;;;;;;;15.50;8.80;;;;;20.00;100591.00;;;;2063500;28;20226;-68
2023/11/17 04:38:45;;;;;;;14.37;8.33;;;;;20.00;100591.00;;;;2053245;28;20242;-68
2023/11/17 04:39:45;;;;;;;12.37;8.20;;;;;20.00;100588.00;;;;2064419;28;20257;-68
2023/11/17 04:40:45;;;;;;;14.67;8.77;;;;;20.00;100591.00;;;;2061200;28;20350;-68
2023/11/17 04:41:47;;;;;;;20.60;10.10;;;;;20.00;100590.00;;;;2063647;28;20211;-68
2023/11/17 04:42:48;;;;;;;15.68;9.75;;;;;20.10;100590.00;;;;2064328;28;20211;-68
2023/11/17 04:43:48;;;;;;;14.73;8.80;;;;;20.10;100588.00;;;;2054730;28;20250;-68
2023/11/17 04:44:48;;;;;;;15.93;10.10;;;;;20.00;100592.00;;;;2064179;28;20219;-68
2023/11/17 04:45:49;;;;;;;15.20;9.63;;;;;20.00;100591.00;;;;2067144;28;20210;-67
2023/11/17 04:46:49;;;;;;;19.73;9.10;;;;;20.00;100592.00;;;;2064052;28;20718;-67
2023/11/17 04:47:50;;;;;;;14.63;8.93;;;;;20.10;100600.00;;;;2065022;28;20599;-67
2023/11/17 04:48:51;;;;;;;15.23;9.40;;;;;20.10;100604.00;;;;2059899;28;20210;-67
2023/11/17 04:49:51;;;;;;;14.57;9.27;;;;;20.10;100601.00;;;;2064539;28;20214;-67
2023/11/17 04:50:52;;;;;;;15.07;9.40;;;;;20.00;100606.00;;;;2064436;28;20736;-67
2023/11/17 04:51:52;;;;;;;17.03;9.47;;;;;20.00;100606.00;;;;2064212;28;20761;-67
2023/11/17 04:52:53;;;;;;;17.90;9.27;;;;;20.00;100595.00;;;;2064234;28;20211;-67
2023/11/17 04:53:53;;;;;;;18.10;8.60;;;;;20.00;100598.00;;;;2054797;28;20258;-67
2023/11/17 04:54:54;;;;;;;15.17;9.10;;;;;20.00;100602.00;;;;2065887;28;20232;-67
2023/11/17 04:55:54;;;;;;;15.33;9.20;;;;;20.00;100607.00;;;;2069449;28;20689;-68
2023/11/17 04:56:55;;;;;;;16.37;9.37;;;;;20.00;100605.00;;;;2064356;28;20215;-68
2023/11/17 04:57:55;;;;;;;18.57;10.13;;;;;20.00;100617.00;;;;2062057;28;20257;-68
2023/11/17 04:58:56;;;;;;;15.60;9.70;;;;;20.00;100618.00;;;;2054666;28;20268;-68
2023/11/17 04:59:57;;;;;;;14.57;8.57;;;;;20.00;100612.00;;;;2063605;28;20246;-68
2023/11/17 05:00:57;;;;;;;15.70;10.10;;;;;20.00;100613.00;;;;2064395;28;20700;-68
2023/11/17 05:01:58;;;;;;;16.03;9.30;;;;;20.00;100606.00;;;;2066100;28;20693;-68
2023/11/17 05:03:02;;;;;;;17.43;9.90;;;;;20.00;100612.00;;;;2068409;28;20222;-68
2023/11/17 05:04:03;;;;;;;19.60;10.80;;;;;20.00;100613.00;;;;2053845;28;20226;-68